Time;durP1;ratioP1;P1;durP2;ratioP2;P2;SDS_P1;SDS_P2;PMS_P1;PMS_P2;Temp;Humidity;BMP_temperature;BMP_pressure;BME280_temperature;BME280_humidity;BME280_pressure;Samples;Min_cycle;Max_cycle;Signal;HPM_P1;HPM_P2
2023/01/30 00:00:36;;;;;;;46.42;32.10;;;5.30;99.90;;;;;;2107071;28;20369;-72
2023/01/30 00:01:37;;;;;;;44.83;30.90;;;5.30;99.90;;;;;;2109200;27;20035;-72
2023/01/30 00:02:37;;;;;;;44.00;31.23;;;5.30;99.90;;;;;;2107772;28;20148;-72
2023/01/30 00:03:38;;;;;;;40.72;29.58;;;5.30;99.90;;;;;;2107349;28;20074;-72
2023/01/30 00:04:38;;;;;;;43.80;31.70;;;5.30;99.90;;;;;;2108297;28;20028;-72
2023/01/30 00:05:39;;;;;;;44.13;31.13;;;5.30;99.90;;;;;;2109647;28;20096;-72
2023/01/30 00:06:40;;;;;;;43.97;30.88;;;5.30;99.90;;;;;;2107928;28;20024;-72
2023/01/30 00:07:40;;;;;;;45.42;32.80;;;5.30;99.90;;;;;;2107746;28;20019;-72
2023/01/30 00:08:41;;;;;;;42.33;31.35;;;5.30;99.90;;;;;;2108017;28;20048;-72
2023/01/30 00:09:41;;;;;;;43.75;31.45;;;5.30;99.90;;;;;;2106373;28;20020;-72
2023/01/30 00:10:42;;;;;;;42.97;30.05;;;5.30;99.90;;;;;;2109223;28;20055;-72
2023/01/30 00:11:43;;;;;;;48.53;32.50;;;5.30;99.90;;;;;;2108531;28;20020;-71
2023/01/30 00:12:43;;;;;;;43.83;30.50;;;5.30;99.90;;;;;;2108382;28;20051;-71
2023/01/30 00:13:46;;;;;;;46.13;31.40;;;5.30;99.90;;;;;;2107827;28;20468;-72
2023/01/30 00:14:46;;;;;;;46.22;31.45;;;5.30;99.90;;;;;;2107116;28;20396;-72
2023/01/30 00:15:47;;;;;;;44.65;30.23;;;5.30;99.90;;;;;;2107642;28;20031;-72
2023/01/30 00:16:48;;;;;;;43.03;30.20;;;5.30;99.90;;;;;;2109450;27;20671;-72
2023/01/30 00:17:48;;;;;;;42.05;30.83;;;5.40;99.90;;;;;;2108724;28;20115;-72
2023/01/30 00:18:49;;;;;;;43.90;31.52;;;5.40;99.90;;;;;;2108300;28;20035;-72
2023/01/30 00:19:50;;;;;;;43.72;30.77;;;5.40;99.90;;;;;;2107411;28;20023;-71
2023/01/30 00:20:58;;;;;;;43.33;30.40;;;5.40;99.90;;;;;;2106644;28;20119;-72
2023/01/30 00:21:58;;;;;;;43.50;30.20;;;5.40;99.90;;;;;;2107743;28;20020;-72
2023/01/30 00:22:59;;;;;;;44.40;31.85;;;5.40;99.90;;;;;;2108123;28;20528;-72
2023/01/30 00:23:59;;;;;;;48.45;32.08;;;5.40;99.90;;;;;;2107903;28;20020;-72
2023/01/30 00:25:00;;;;;;;45.90;31.50;;;5.40;99.90;;;;;;2109122;28;20027;-72
2023/01/30 00:26:01;;;;;;;43.45;31.30;;;5.40;99.90;;;;;;2107443;28;20114;-72
2023/01/30 00:27:01;;;;;;;44.05;32.75;;;5.40;99.90;;;;;;2106967;28;20028;-72
2023/01/30 00:28:02;;;;;;;46.17;29.52;;;5.40;99.90;;;;;;2107576;27;20008;-72
2023/01/30 00:29:02;;;;;;;43.90;31.38;;;5.40;99.90;;;;;;2109438;28;20524;-72
2023/01/30 00:30:05;;;;;;;44.67;31.90;;;5.40;99.90;;;;;;2106744;28;20081;-72
2023/01/30 00:31:06;;;;;;;44.00;30.58;;;5.40;99.90;;;;;;2115560;27;20024;-71
2023/01/30 00:32:07;;;;;;;40.65;30.95;;;5.40;99.90;;;;;;2108556;28;20016;-72
2023/01/30 00:33:09;;;;;;;41.92;30.13;;;5.40;99.90;;;;;;2105879;28;20030;-72
2023/01/30 00:34:09;;;;;;;46.38;32.42;;;5.40;99.90;;;;;;2107017;27;20051;-72
2023/01/30 00:35:10;;;;;;;44.55;31.15;;;5.40;99.90;;;;;;2109186;28;20098;-71
2023/01/30 00:36:10;;;;;;;43.83;30.95;;;5.40;99.90;;;;;;2106553;28;20039;-71
2023/01/30 00:37:11;;;;;;;45.40;31.73;;;5.50;99.90;;;;;;2108653;28;20020;-72
2023/01/30 00:38:11;;;;;;;41.72;31.42;;;5.50;99.90;;;;;;2108162;28;20070;-72
2023/01/30 00:39:12;;;;;;;44.25;31.60;;;5.50;99.90;;;;;;2107478;28;20030;-72
2023/01/30 00:40:12;;;;;;;42.85;30.70;;;5.50;99.90;;;;;;2107798;28;20015;-72
2023/01/30 00:41:14;;;;;;;44.63;30.63;;;5.50;99.90;;;;;;2105351;28;21343;-72
2023/01/30 00:47:48;;;;;;;42.15;29.55;;;5.50;99.90;;;;;;2108071;28;20028;-71
2023/01/30 00:48:49;;;;;;;45.13;31.13;;;5.50;99.90;;;;;;2105583;28;20152;-72
2023/01/30 00:49:49;;;;;;;45.60;31.60;;;5.50;99.90;;;;;;2107178;28;20100;-72
2023/01/30 00:50:50;;;;;;;43.28;31.10;;;5.50;99.90;;;;;;2108607;28;20062;-72
2023/01/30 00:51:50;;;;;;;41.65;30.42;;;5.50;99.90;;;;;;2108387;28;20049;-72
2023/01/30 00:52:51;;;;;;;45.42;30.98;;;5.50;99.90;;;;;;2106426;28;20032;-72
2023/01/30 00:53:51;;;;;;;42.72;31.17;;;5.50;99.90;;;;;;2107697;28;20060;-72
2023/01/30 00:54:52;;;;;;;45.22;30.67;;;5.60;99.90;;;;;;2108127;28;20051;-72
2023/01/30 00:55:54;;;;;;;45.15;31.40;;;5.60;99.90;;;;;;2107665;28;20077;-72
2023/01/30 00:56:54;;;;;;;42.35;31.85;;;5.60;99.90;;;;;;2106958;28;20020;-72
2023/01/30 00:57:55;;;;;;;40.90;31.38;;;5.60;99.90;;;;;;2107943;28;20081;-71
2023/01/30 00:58:55;;;;;;;44.35;31.23;;;5.60;99.90;;;;;;2105838;28;20023;-71
2023/01/30 00:59:56;;;;;;;42.00;30.48;;;5.60;99.90;;;;;;2109605;28;20110;-71
2023/01/30 01:00:56;;;;;;;46.03;31.33;;;5.60;99.90;;;;;;2107081;28;20035;-71
2023/01/30 01:01:57;;;;;;;43.60;30.70;;;5.60;99.90;;;;;;2108093;28;20024;-71
2023/01/30 01:02:57;;;;;;;42.47;31.65;;;5.60;99.90;;;;;;2107302;27;20063;-71
2023/01/30 01:03:58;;;;;;;43.38;31.45;;;5.60;99.90;;;;;;2106209;27;20032;-71
2023/01/30 01:04:58;;;;;;;39.60;30.77;;;5.60;99.90;;;;;;2107408;28;20032;-71
2023/01/30 01:05:59;;;;;;;44.13;30.80;;;5.60;99.90;;;;;;2107387;28;20107;-71
2023/01/30 01:07:00;;;;;;;45.42;31.25;;;5.60;99.90;;;;;;2108446;28;20064;-71
2023/01/30 01:08:00;;;;;;;43.40;31.63;;;5.70;99.90;;;;;;2105235;28;20031;-71
2023/01/30 01:09:02;;;;;;;44.95;31.42;;;5.70;99.90;;;;;;2106737;28;20535;-71
2023/01/30 01:10:03;;;;;;;44.33;31.00;;;5.70;99.90;;;;;;2109121;28;20468;-71
2023/01/30 01:11:03;;;;;;;46.05;32.05;;;5.70;99.90;;;;;;2107927;28;20706;-71
2023/01/30 01:12:05;;;;;;;40.78;29.75;;;5.70;99.90;;;;;;2106384;28;20024;-71
2023/01/30 01:13:06;;;;;;;45.42;31.20;;;5.70;99.90;;;;;;2107607;28;20563;-71
2023/01/30 01:14:06;;;;;;;43.35;31.25;;;5.70;99.90;;;;;;2106018;28;20495;-71
2023/01/30 01:15:07;;;;;;;41.22;30.35;;;5.70;99.90;;;;;;2108357;28;20114;-71
2023/01/30 01:16:07;;;;;;;44.90;31.85;;;5.70;99.90;;;;;;2107299;28;20115;-71
2023/01/30 01:17:08;;;;;;;39.55;30.08;;;5.70;99.90;;;;;;2107468;27;20046;-71
2023/01/30 01:18:08;;;;;;;41.63;30.70;;;5.70;99.90;;;;;;2107129;28;20031;-71
2023/01/30 01:19:09;;;;;;;41.45;30.67;;;5.70;99.90;;;;;;2106701;28;20020;-71
2023/01/30 01:20:10;;;;;;;43.38;32.92;;;5.70;99.90;;;;;;2104179;28;20101;-71
2023/01/30 01:21:12;;;;;;;43.38;31.77;;;5.70;99.90;;;;;;2107279;28;20033;-71
2023/01/30 01:22:12;;;;;;;41.90;31.38;;;5.70;99.90;;;;;;2105815;28;20023;-71
2023/01/30 01:23:13;;;;;;;42.05;30.88;;;5.70;99.90;;;;;;2107571;28;20585;-71
2023/01/30 01:24:14;;;;;;;40.97;31.10;;;5.80;99.90;;;;;;2106611;28;20156;-71
2023/01/30 01:25:15;;;;;;;42.15;31.45;;;5.80;99.90;;;;;;2106732;28;20028;-71
2023/01/30 01:26:16;;;;;;;43.42;32.05;;;5.80;99.90;;;;;;2109245;28;20050;-71
2023/01/30 01:27:18;;;;;;;40.13;31.13;;;5.80;99.90;;;;;;2107115;28;20708;-71
2023/01/30 01:28:21;;;;;;;45.60;32.95;;;5.70;99.90;;;;;;2104959;28;20020;-71
2023/01/30 01:29:21;;;;;;;42.92;31.52;;;5.80;99.90;;;;;;2102466;28;20024;-71
2023/01/30 01:30:22;;;;;;;40.20;31.00;;;5.80;99.90;;;;;;2107467;28;20107;-71
2023/01/30 01:31:23;;;;;;;40.65;31.00;;;5.80;99.90;;;;;;2109048;28;20506;-71
2023/01/30 01:32:23;;;;;;;47.13;32.67;;;5.80;99.90;;;;;;2111494;28;20441;-71
2023/01/30 01:33:27;;;;;;;42.63;30.80;;;5.70;99.90;;;;;;2106175;28;20485;-71
2023/01/30 01:34:28;;;;;;;42.53;31.52;;;5.80;99.90;;;;;;2106705;28;20053;-71
2023/01/30 01:35:28;;;;;;;42.70;32.13;;;5.80;99.90;;;;;;2108506;28;20507;-71
2023/01/30 01:36:29;;;;;;;39.85;30.42;;;5.80;99.90;;;;;;2109793;28;20024;-71
2023/01/30 01:37:29;;;;;;;40.38;31.85;;;5.70;99.90;;;;;;2101913;28;20572;-71
2023/01/30 01:38:30;;;;;;;43.50;31.42;;;5.80;99.90;;;;;;2109941;28;20458;-71
2023/01/30 01:41:00;;;;;;;45.45;32.85;;;5.80;99.90;;;;;;2107248;28;20103;-71
2023/01/30 01:41:05;;;;;;;41.22;31.55;;;5.80;99.90;;;;;;2109345;28;20069;-71
2023/01/30 01:42:07;;;;;;;45.88;32.05;;;5.70;99.90;;;;;;2108435;28;20020;-71
2023/01/30 01:43:17;;;;;;;42.55;30.73;;;5.70;99.90;;;;;;2107426;28;20031;-71
2023/01/30 01:44:17;;;;;;;45.65;33.15;;;5.70;99.90;;;;;;2107935;28;20024;-71
2023/01/30 01:45:23;;;;;;;40.83;30.70;;;5.80;99.90;;;;;;2106844;28;20102;-71
2023/01/30 01:46:29;;;;;;;41.03;29.73;;;5.80;99.90;;;;;;2106342;27;20038;-71
2023/01/30 01:47:33;;;;;;;42.20;30.70;;;5.80;99.90;;;;;;2107099;28;20055;-71
2023/01/30 01:48:38;;;;;;;41.60;31.50;;;5.80;99.90;;;;;;2107486;28;20042;-71
2023/01/30 01:49:39;;;;;;;41.95;31.02;;;5.80;99.90;;;;;;2107895;28;20035;-71
2023/01/30 01:50:44;;;;;;;42.10;30.63;;;5.80;99.90;;;;;;2109348;28;20020;-71
2023/01/30 01:52:01;;;;;;;42.05;30.85;;;5.80;99.90;;;;;;2108054;28;20495;-71
2023/01/30 01:53:02;;;;;;;37.83;29.23;;;5.80;99.90;;;;;;2106369;28;20092;-71
2023/01/30 01:54:08;;;;;;;40.90;31.35;;;5.80;99.90;;;;;;2108438;28;20028;-71
2023/01/30 01:55:09;;;;;;;41.08;31.10;;;5.80;99.90;;;;;;2108025;28;20511;-71
2023/01/30 01:56:14;;;;;;;41.15;31.75;;;5.80;99.90;;;;;;2106500;28;20110;-71
2023/01/30 01:57:25;;;;;;;37.92;29.60;;;5.80;99.90;;;;;;2106048;28;20032;-71
2023/01/30 01:58:41;;;;;;;39.17;30.17;;;5.80;99.90;;;;;;2107885;28;20031;-71
2023/01/30 01:59:51;;;;;;;42.90;30.40;;;5.80;99.90;;;;;;2107949;28;20073;-71
2023/01/30 02:00:53;;;;;;;;;;;5.80;99.90;;;;;;2107120;28;20078;-71
2023/01/30 02:01:58;;;;;;;41.72;30.42;;;5.70;99.90;;;;;;2108036;28;19903;-71
2023/01/30 02:03:05;;;;;;;38.05;30.02;;;5.80;99.90;;;;;;2108645;28;20033;-71
2023/01/30 02:04:09;;;;;;;40.75;29.88;;;5.80;99.90;;;;;;2108543;28;20723;-71
2023/01/30 02:05:13;;;;;;;41.65;30.02;;;5.70;99.90;;;;;;2106472;28;20016;-71
2023/01/30 02:06:16;;;;;;;39.85;29.92;;;5.80;99.90;;;;;;2106950;28;20019;-71
2023/01/30 02:07:20;;;;;;;43.38;31.95;;;5.80;99.90;;;;;;2106533;28;20020;-71
2023/01/30 02:08:26;;;;;;;40.30;30.80;;;5.70;99.90;;;;;;2103723;28;20020;-71
2023/01/30 02:09:26;;;;;;;40.88;30.40;;;5.80;99.90;;;;;;2107075;28;20477;-71
2023/01/30 02:10:42;;;;;;;41.78;29.77;;;5.80;99.90;;;;;;2106604;28;20031;-71
2023/01/30 02:11:51;;;;;;;39.28;30.73;;;5.80;99.90;;;;;;2106914;28;20039;-71
2023/01/30 02:12:51;;;;;;;41.05;30.48;;;5.80;99.90;;;;;;2108473;28;20115;-71
2023/01/30 02:13:52;;;;;;;40.60;31.17;;;5.80;99.90;;;;;;2106455;28;20145;-71
2023/01/30 02:14:56;;;;;;;41.40;29.75;;;5.80;99.90;;;;;;2106700;28;20088;-71
2023/01/30 02:15:58;;;;;;;41.95;31.23;;;5.80;99.90;;;;;;2108346;28;20109;-71
2023/01/30 02:16:59;;;;;;;44.00;30.40;;;5.80;99.90;;;;;;2108441;28;20471;-71
2023/01/30 02:18:00;;;;;;;41.28;31.60;;;5.90;99.90;;;;;;2105129;28;20424;-71
2023/01/30 02:19:00;;;;;;;40.33;31.33;;;5.90;99.90;;;;;;2108308;28;20077;-71
2023/01/30 02:20:14;;;;;;;40.88;32.00;;;5.90;99.90;;;;;;2104702;28;20683;-71
2023/01/30 02:21:23;;;;;;;41.35;32.55;;;5.90;99.90;;;;;;2104001;28;20539;-71
2023/01/30 02:22:45;;;;;;;41.40;31.52;;;5.90;99.90;;;;;;2105516;28;20024;-71
2023/01/30 02:23:52;;;;;;;44.65;32.08;;;5.90;99.90;;;;;;2106624;28;20039;-71
2023/01/30 02:25:13;;;;;;;43.72;31.98;;;5.90;99.90;;;;;;2106799;28;20028;-71
2023/01/30 02:26:46;;;;;;;40.20;30.67;;;5.90;99.90;;;;;;2105677;28;20523;-71
2023/01/30 02:28:27;;;;;;;41.58;30.83;;;5.90;99.90;;;;;;2105492;28;20052;-71
2023/01/30 02:29:43;;;;;;;45.63;32.22;;;5.90;99.90;;;;;;2105775;28;20044;-71
2023/01/30 02:31:02;;;;;;;43.35;31.05;;;5.80;99.90;;;;;;2104607;28;20112;-71
2023/01/30 02:32:09;;;;;;;43.58;30.48;;;5.90;99.90;;;;;;2106854;28;20028;-71
2023/01/30 02:33:29;;;;;;;45.78;31.45;;;5.90;99.90;;;;;;2107872;28;20020;-71
2023/01/30 02:34:33;;;;;;;38.65;30.13;;;5.90;99.90;;;;;;2104156;28;20032;-71
2023/01/30 02:35:59;;;;;;;42.00;31.48;;;5.90;99.90;;;;;;2108115;28;20614;-71
2023/01/30 02:37:32;;;;;;;44.03;32.00;;;5.90;99.90;;;;;;2110140;28;20043;-71
2023/01/30 02:38:45;;;;;;;42.75;29.83;;;5.90;99.90;;;;;;2108699;28;20023;-71
2023/01/30 02:39:56;;;;;;;38.53;31.40;;;5.90;99.90;;;;;;2109320;28;20036;-71
2023/01/30 02:41:01;;;;;;;43.03;31.38;;;5.90;99.90;;;;;;2109240;28;20186;-71
2023/01/30 02:42:18;;;;;;;47.65;31.90;;;5.90;99.90;;;;;;2108214;28;20108;-71
2023/01/30 02:43:40;;;;;;;40.30;31.55;;;5.90;99.90;;;;;;2110565;28;20020;-71
2023/01/30 02:44:59;;;;;;;42.78;30.77;;;5.90;99.90;;;;;;2110291;28;20016;-71
2023/01/30 02:46:13;;;;;;;44.05;32.00;;;5.90;99.90;;;;;;2107415;28;20107;-71
2023/01/30 02:47:21;;;;;;;42.60;31.77;;;5.90;99.90;;;;;;2107863;28;20104;-71
2023/01/30 02:48:36;;;;;;;33.25;28.50;;;5.90;99.90;;;;;;2107559;28;20039;-71
2023/01/30 02:49:43;;;;;;;41.20;31.92;;;6.00;99.90;;;;;;2107654;28;20031;-71
2023/01/30 02:50:52;;;;;;;41.95;30.17;;;6.00;99.90;;;;;;2105605;28;20050;-71
2023/01/30 02:51:55;;;;;;;41.30;31.25;;;6.00;99.90;;;;;;2108559;28;20387;-71
2023/01/30 02:52:56;;;;;;;43.35;32.25;;;6.00;99.90;;;;;;2108453;28;20036;-71
2023/01/30 02:53:58;;;;;;;40.75;31.95;;;6.00;99.90;;;;;;2110055;28;20031;-71
2023/01/30 02:54:59;;;;;;;39.17;30.05;;;6.00;99.90;;;;;;2110442;28;20589;-71
2023/01/30 02:56:00;;;;;;;43.00;31.25;;;6.00;99.90;;;;;;2107859;28;20053;-71
2023/01/30 02:57:00;;;;;;;42.53;30.98;;;6.10;99.90;;;;;;2107070;28;20016;-71
2023/01/30 02:58:03;;;;;;;40.78;31.88;;;6.00;99.90;;;;;;2109826;28;20024;-71
2023/01/30 02:59:05;;;;;;;41.13;31.70;;;6.10;99.90;;;;;;2107739;28;20528;-71
2023/01/30 03:00:07;;;;;;;42.47;31.85;;;6.10;99.90;;;;;;2107071;28;20496;-71
2023/01/30 03:01:29;;;;;;;40.08;31.20;;;6.10;99.90;;;;;;2108170;28;20044;-71
2023/01/30 03:03:08;;;;;;;44.33;32.20;;;6.10;99.90;;;;;;2107193;28;20065;-71
2023/01/30 03:04:17;;;;;;;38.08;30.17;;;6.10;99.90;;;;;;2109558;28;20028;-71
2023/01/30 03:05:27;;;;;;;39.95;30.42;;;6.10;99.90;;;;;;2105535;28;20035;-71
2023/01/30 03:06:46;;;;;;;43.13;32.08;;;6.10;99.90;;;;;;2107187;28;20064;-71
2023/01/30 03:08:02;;;;;;;42.08;30.17;;;6.10;99.90;;;;;;2108020;28;20023;-71
2023/01/30 03:09:35;;;;;;;40.45;31.77;;;6.10;99.90;;;;;;2105453;28;20012;-71
2023/01/30 03:10:47;;;;;;;38.85;29.25;;;6.10;99.90;;;;;;2109076;28;20028;-71
2023/01/30 03:12:07;;;;;;;37.22;30.67;;;6.10;99.90;;;;;;2109523;28;20117;-71
2023/01/30 03:13:36;;;;;;;37.55;30.00;;;6.10;99.90;;;;;;2107135;28;20160;-71
2023/01/30 03:14:58;;;;;;;40.47;30.70;;;6.10;99.90;;;;;;2108720;28;20098;-71
2023/01/30 03:16:24;;;;;;;38.85;30.08;;;6.10;99.90;;;;;;2109819;28;20042;-71
2023/01/30 03:17:26;;;;;;;40.45;30.80;;;6.10;99.90;;;;;;2109392;28;20023;-71
2023/01/30 03:18:27;;;;;;;40.50;30.00;;;6.10;99.90;;;;;;2108597;28;20024;-71
2023/01/30 03:19:29;;;;;;;42.60;30.88;;;6.20;99.90;;;;;;2108160;28;20035;-71
2023/01/30 03:20:34;;;;;;;43.22;31.27;;;6.20;99.90;;;;;;2108118;28;20028;-71
2023/01/30 03:21:43;;;;;;;39.30;30.90;;;6.20;99.90;;;;;;2108166;28;20032;-71
2023/01/30 03:22:44;;;;;;;41.22;30.20;;;6.20;99.90;;;;;;2108054;28;20031;-72
2023/01/30 03:23:48;;;;;;;42.65;31.13;;;6.20;99.90;;;;;;2108972;28;20020;-71
2023/01/30 03:24:51;;;;;;;43.53;31.98;;;6.20;99.90;;;;;;2107124;28;20020;-71
2023/01/30 03:25:52;;;;;;;41.35;31.00;;;6.30;99.90;;;;;;2109305;28;20020;-71
2023/01/30 03:27:06;;;;;;;41.67;31.20;;;6.30;99.90;;;;;;2107970;28;20019;-71
2023/01/30 03:28:07;;;;;;;40.60;31.67;;;6.30;99.90;;;;;;2109581;28;20070;-71
2023/01/30 03:29:08;;;;;;;41.95;31.00;;;6.30;99.90;;;;;;2107973;28;20028;-71
2023/01/30 03:30:09;;;;;;;41.55;31.67;;;6.30;99.90;;;;;;2107291;28;20066;-71
2023/01/30 03:31:10;;;;;;;40.55;30.58;;;6.30;99.90;;;;;;2108318;28;20020;-71
2023/01/30 03:32:10;;;;;;;39.40;30.35;;;6.30;99.90;;;;;;2107236;28;20107;-71
2023/01/30 03:33:11;;;;;;;39.00;29.50;;;6.30;99.90;;;;;;2107902;28;20039;-71
2023/01/30 03:34:11;;;;;;;39.70;31.58;;;6.30;99.90;;;;;;2108082;28;20092;-71
2023/01/30 03:35:12;;;;;;;44.08;30.88;;;6.40;99.90;;;;;;2107293;28;20436;-72
2023/01/30 03:36:13;;;;;;;44.92;32.08;;;6.40;99.90;;;;;;2107125;27;20166;-71
2023/01/30 03:37:13;;;;;;;43.22;32.33;;;6.40;99.90;;;;;;2107699;28;20686;-71
2023/01/30 03:38:14;;;;;;;39.97;31.98;;;6.40;99.90;;;;;;2108128;28;20024;-71
2023/01/30 03:39:14;;;;;;;42.53;31.77;;;6.40;99.90;;;;;;2109991;28;20055;-71
2023/01/30 03:40:16;;;;;;;42.10;31.67;;;6.40;99.90;;;;;;2108786;28;20023;-71
2023/01/30 03:41:17;;;;;;;39.75;31.02;;;6.40;99.90;;;;;;2107909;28;20038;-71
2023/01/30 03:42:17;;;;;;;40.35;29.98;;;6.40;99.90;;;;;;2107825;28;20032;-71
2023/01/30 03:43:18;;;;;;;37.42;31.88;;;6.40;99.90;;;;;;2107639;28;20074;-71
2023/01/30 03:44:18;;;;;;;42.72;32.17;;;6.40;99.90;;;;;;2106193;28;20069;-71
2023/01/30 03:45:19;;;;;;;37.40;30.25;;;6.40;99.90;;;;;;2104914;28;20027;-71
2023/01/30 03:46:19;;;;;;;45.08;32.00;;;6.40;99.90;;;;;;2108870;28;20107;-71
2023/01/30 03:47:20;;;;;;;42.90;32.10;;;6.50;99.90;;;;;;2108871;28;20023;-71
2023/01/30 03:48:20;;;;;;;39.03;31.25;;;6.50;99.90;;;;;;2108913;28;20071;-71
2023/01/30 03:49:21;;;;;;;42.22;31.75;;;6.50;99.90;;;;;;2107190;28;20047;-71
2023/01/30 03:50:21;;;;;;;40.13;31.70;;;6.50;99.90;;;;;;2106119;28;20028;-71
2023/01/30 03:51:23;;;;;;;42.75;31.83;;;6.50;99.90;;;;;;2108997;28;20647;-72
2023/01/30 03:52:23;;;;;;;41.47;31.40;;;6.50;99.90;;;;;;2108457;28;20379;-71
2023/01/30 03:53:24;;;;;;;44.90;32.03;;;6.50;99.90;;;;;;2107938;28;20051;-71
2023/01/30 03:54:25;;;;;;;42.08;31.85;;;6.50;99.90;;;;;;2107422;28;20031;-71
2023/01/30 03:55:25;;;;;;;42.13;31.90;;;6.50;99.90;;;;;;2109584;28;20040;-71
2023/01/30 03:56:26;;;;;;;41.90;32.45;;;6.50;99.90;;;;;;2107302;28;20043;-71
2023/01/30 03:57:26;;;;;;;40.55;30.02;;;6.50;99.90;;;;;;2107935;28;20047;-71
2023/01/30 03:58:27;;;;;;;39.38;31.35;;;6.50;99.90;;;;;;2108342;28;20031;-71
2023/01/30 03:59:27;;;;;;;40.63;31.20;;;6.50;99.90;;;;;;2108102;28;20513;-71
2023/01/30 04:00:28;;;;;;;41.50;30.25;;;6.50;99.90;;;;;;2108730;28;20040;-71
2023/01/30 04:01:28;;;;;;;44.05;31.45;;;6.50;99.90;;;;;;2107884;28;20036;-71
2023/01/30 04:02:29;;;;;;;42.83;32.58;;;6.50;99.90;;;;;;2108879;28;20910;-71
2023/01/30 04:03:29;;;;;;;45.17;33.13;;;6.50;99.90;;;;;;2107559;28;20103;-71
2023/01/30 04:04:30;;;;;;;39.65;29.42;;;6.50;99.90;;;;;;2108550;28;20072;-71
2023/01/30 04:05:30;;;;;;;40.88;30.35;;;6.50;99.90;;;;;;2108584;28;20111;-71
2023/01/30 04:06:31;;;;;;;42.65;31.23;;;6.50;99.90;;;;;;2108449;28;20491;-71
2023/01/30 04:07:31;;;;;;;42.00;29.92;;;6.50;99.90;;;;;;2108708;28;20024;-71
2023/01/30 04:08:32;;;;;;;41.33;30.75;;;6.50;99.90;;;;;;2109568;28;20104;-71
2023/01/30 04:09:32;;;;;;;40.70;30.23;;;6.50;99.90;;;;;;2108746;28;20030;-71
2023/01/30 04:10:33;;;;;;;39.58;30.95;;;6.50;99.90;;;;;;2107059;28;20108;-71
2023/01/30 04:11:34;;;;;;;42.45;30.95;;;6.50;99.90;;;;;;2108418;28;20023;-72
2023/01/30 04:12:34;;;;;;;40.80;30.98;;;6.50;99.90;;;;;;2110349;28;20102;-71
2023/01/30 04:13:35;;;;;;;40.65;30.60;;;6.50;99.90;;;;;;2110199;28;20020;-71
2023/01/30 04:14:35;;;;;;;41.20;31.67;;;6.50;99.90;;;;;;2107630;28;20024;-71
2023/01/30 04:15:36;;;;;;;40.10;30.33;;;6.50;99.90;;;;;;2108501;28;20030;-71
2023/01/30 04:16:36;;;;;;;41.78;29.98;;;6.50;99.90;;;;;;2106008;28;20027;-71
2023/01/30 04:17:37;;;;;;;46.33;31.08;;;6.60;99.90;;;;;;2107582;28;20039;-71
2023/01/30 04:18:37;;;;;;;38.20;30.20;;;6.60;99.90;;;;;;2107359;28;20965;-71
2023/01/30 04:19:38;;;;;;;43.92;31.70;;;6.50;99.90;;;;;;2107628;28;20119;-72
2023/01/30 04:20:38;;;;;;;40.45;30.80;;;6.60;99.90;;;;;;2106673;28;20121;-71
2023/01/30 04:21:39;;;;;;;40.30;31.50;;;6.60;99.90;;;;;;2107874;28;20138;-71
2023/01/30 04:22:39;;;;;;;37.25;29.90;;;6.50;99.90;;;;;;2110894;28;20027;-71
2023/01/30 04:23:41;;;;;;;42.72;30.10;;;6.50;99.90;;;;;;2111514;28;20701;-71
2023/01/30 04:24:41;;;;;;;39.42;29.77;;;6.50;99.90;;;;;;2105988;28;20726;-71
2023/01/30 04:25:45;;;;;;;43.35;31.05;;;6.60;99.90;;;;;;2106331;28;20135;-71
2023/01/30 04:26:46;;;;;;;39.90;31.20;;;6.60;99.90;;;;;;2109109;28;20109;-72
2023/01/30 04:27:46;;;;;;;40.40;30.20;;;6.60;99.90;;;;;;2107030;28;20077;-72
2023/01/30 04:28:47;;;;;;;39.72;31.40;;;6.60;99.90;;;;;;2106511;28;20084;-72
2023/01/30 04:29:47;;;;;;;37.65;30.05;;;6.60;99.90;;;;;;2106620;28;20050;-72
2023/01/30 04:30:48;;;;;;;38.53;29.48;;;6.60;99.90;;;;;;2107929;28;20046;-72
2023/01/30 04:31:48;;;;;;;39.83;30.50;;;6.60;99.90;;;;;;2108298;28;20419;-72
2023/01/30 04:32:49;;;;;;;35.78;29.45;;;6.60;99.90;;;;;;2107366;28;20024;-72
2023/01/30 04:33:49;;;;;;;39.67;31.52;;;6.60;99.90;;;;;;2109635;28;20036;-71
2023/01/30 04:34:50;;;;;;;41.88;30.85;;;6.60;99.90;;;;;;2107721;28;20119;-71
2023/01/30 04:35:55;;;;;;;36.70;29.40;;;6.60;99.90;;;;;;2109730;28;20022;-71
2023/01/30 04:36:56;;;;;;;38.53;30.77;;;6.60;99.90;;;;;;2109876;28;20090;-72
2023/01/30 04:37:56;;;;;;;40.72;30.52;;;6.60;99.90;;;;;;2109103;28;20081;-72
2023/01/30 04:38:57;;;;;;;40.55;29.95;;;6.60;99.90;;;;;;2109604;27;20558;-72
2023/01/30 04:39:57;;;;;;;38.25;28.88;;;6.70;99.90;;;;;;2107320;28;20032;-72
2023/01/30 04:40:59;;;;;;;36.13;29.60;;;6.70;99.90;;;;;;2110769;28;20099;-71
2023/01/30 04:41:59;;;;;;;39.53;29.63;;;6.70;99.90;;;;;;2108713;28;20019;-71
2023/01/30 04:43:00;;;;;;;39.08;29.83;;;6.60;99.90;;;;;;2107827;28;20027;-72
2023/01/30 04:44:00;;;;;;;35.17;28.67;;;6.60;99.90;;;;;;2111211;28;20090;-72
2023/01/30 04:45:01;;;;;;;42.40;32.03;;;6.70;99.90;;;;;;2111115;28;20027;-72
2023/01/30 04:46:01;;;;;;;37.65;28.75;;;6.70;99.90;;;;;;2107610;28;20582;-72
2023/01/30 04:47:02;;;;;;;35.22;29.08;;;6.70;99.90;;;;;;2108063;28;20026;-72
2023/01/30 04:48:02;;;;;;;34.45;28.70;;;6.70;99.90;;;;;;2107232;28;20487;-72
2023/01/30 04:49:03;;;;;;;38.25;29.40;;;6.70;99.90;;;;;;2109329;28;20051;-72
2023/01/30 04:50:04;;;;;;;36.72;29.20;;;6.70;99.90;;;;;;2106794;27;20072;-72
2023/01/30 04:51:05;;;;;;;37.80;30.15;;;6.70;99.90;;;;;;2106294;28;20064;-72
2023/01/30 04:52:05;;;;;;;33.33;28.55;;;6.70;99.90;;;;;;2107158;28;20495;-72
2023/01/30 04:53:06;;;;;;;35.08;29.48;;;6.70;99.90;;;;;;2107425;28;20020;-72
2023/01/30 04:54:07;;;;;;;34.03;28.00;;;6.70;99.90;;;;;;2109378;28;20028;-72
2023/01/30 04:55:08;;;;;;;37.15;27.88;;;6.70;99.90;;;;;;2109129;28;20051;-72
2023/01/30 04:56:08;;;;;;;33.80;28.45;;;6.70;99.90;;;;;;2111243;27;20055;-72
2023/01/30 04:57:09;;;;;;;34.92;28.60;;;6.70;99.90;;;;;;2113339;27;20027;-72
2023/01/30 04:58:09;;;;;;;36.10;28.70;;;6.70;99.90;;;;;;2108352;28;20080;-72
2023/01/30 04:59:10;;;;;;;34.20;27.70;;;6.70;99.90;;;;;;2110183;28;20080;-72
2023/01/30 05:00:11;;;;;;;36.75;28.02;;;6.70;99.90;;;;;;2108435;28;20019;-72
2023/01/30 05:01:34;;;;;;;34.03;27.90;;;6.80;99.90;;;;;;2107805;28;20395;-72
2023/01/30 05:02:34;;;;;;;30.10;26.27;;;6.70;99.90;;;;;;2106791;28;20666;-72
2023/01/30 05:03:35;;;;;;;31.85;26.60;;;6.80;99.90;;;;;;2108239;28;20471;-72
2023/01/30 05:04:35;;;;;;;32.55;27.42;;;6.80;99.90;;;;;;2108586;28;20414;-72
2023/01/30 05:05:36;;;;;;;35.47;26.98;;;6.80;99.90;;;;;;2104609;28;20104;-72
2023/01/30 05:06:36;;;;;;;33.75;27.08;;;6.80;99.90;;;;;;2107583;28;20034;-72
2023/01/30 05:07:37;;;;;;;29.92;25.90;;;6.80;99.90;;;;;;2106007;28;20020;-72
2023/01/30 05:08:37;;;;;;;32.15;26.02;;;6.80;99.90;;;;;;2108257;28;20093;-72
2023/01/30 05:09:38;;;;;;;30.40;25.05;;;6.80;99.90;;;;;;2106267;28;20103;-71
2023/01/30 05:10:38;;;;;;;31.77;25.73;;;6.80;99.90;;;;;;2106252;28;20016;-72
2023/01/30 05:11:39;;;;;;;28.88;24.83;;;6.90;99.90;;;;;;2107347;28;20504;-72
2023/01/30 05:12:40;;;;;;;29.90;25.00;;;6.90;99.90;;;;;;2107945;28;20047;-72
2023/01/30 05:13:42;;;;;;;35.10;26.23;;;6.90;99.90;;;;;;2108322;28;20104;-72
2023/01/30 05:14:42;;;;;;;27.42;24.45;;;6.90;99.90;;;;;;2110269;28;20122;-72
2023/01/30 05:15:44;;;;;;;30.00;26.17;;;6.90;99.90;;;;;;2110719;28;20066;-72
2023/01/30 05:16:44;;;;;;;28.90;23.40;;;6.90;99.90;;;;;;2106774;28;20024;-72
2023/01/30 05:17:45;;;;;;;26.67;23.83;;;6.90;99.90;;;;;;2106702;28;20028;-72
2023/01/30 05:18:46;;;;;;;27.35;23.48;;;6.90;99.90;;;;;;2107518;28;20054;-72
2023/01/30 05:19:46;;;;;;;28.25;23.35;;;6.90;99.90;;;;;;2107323;28;20034;-72
2023/01/30 05:20:47;;;;;;;26.58;23.70;;;6.90;99.90;;;;;;2108353;28;20028;-72
2023/01/30 05:21:47;;;;;;;28.48;23.08;;;6.90;99.90;;;;;;2107870;28;20646;-72
2023/01/30 05:22:48;;;;;;;27.52;23.15;;;6.90;99.90;;;;;;2107259;28;20439;-72
2023/01/30 05:23:49;;;;;;;28.05;24.38;;;6.90;99.90;;;;;;2107057;28;20438;-72
2023/01/30 05:24:50;;;;;;;26.13;23.15;;;6.90;99.90;;;;;;2107775;28;20012;-72
2023/01/30 05:25:50;;;;;;;28.30;22.38;;;6.90;99.90;;;;;;2106417;28;20087;-72
2023/01/30 05:26:51;;;;;;;27.77;21.55;;;7.00;99.90;;;;;;2106610;28;20056;-72
2023/01/30 05:27:51;;;;;;;25.58;21.05;;;6.90;99.90;;;;;;2107727;28;20040;-72
2023/01/30 05:28:54;;;;;;;24.70;22.05;;;6.90;99.90;;;;;;2108072;28;20028;-72
2023/01/30 05:29:54;;;;;;;24.98;21.92;;;7.00;99.90;;;;;;2107680;28;20086;-72
2023/01/30 05:31:06;;;;;;;24.48;21.92;;;7.00;99.90;;;;;;2106067;28;20116;-72
2023/01/30 05:32:10;;;;;;;27.08;22.85;;;7.00;99.90;;;;;;2106392;28;20020;-72
2023/01/30 05:33:11;;;;;;;27.23;22.70;;;7.00;99.90;;;;;;2108082;28;20031;-72